Time;durP1;ratioP1;P1;durP2;ratioP2;P2;SDS_P1;SDS_P2;PMS_P1;PMS_P2;Temp;Humidity;BMP_temperature;BMP_pressure;BME280_temperature;BME280_humidity;BME280_pressure;Samples;Min_cycle;Max_cycle;Signal;HPM_P1;HPM_P2
2023/07/10 00:01:05;;;;;;;18.13;12.27;;;19.70;99.90;;;;;;5058696;28;20060;-73
2023/07/10 00:03:32;;;;;;;17.52;12.43;;;19.80;99.90;;;;;;5074390;28;20036;-74
2023/07/10 00:05:59;;;;;;;18.27;11.50;;;19.80;99.90;;;;;;5055764;28;20040;-73
2023/07/10 00:08:25;;;;;;;20.98;11.65;;;19.80;99.90;;;;;;5041260;28;20540;-73
2023/07/10 00:10:51;;;;;;;21.45;13.10;;;19.90;99.90;;;;;;5075224;28;20047;-73
2023/07/10 00:13:21;;;;;;;21.10;13.30;;;19.90;99.90;;;;;;5074072;28;20111;-73
2023/07/10 00:15:52;;;;;;;19.88;13.70;;;19.80;99.90;;;;;;5076449;28;20453;-74
2023/07/10 00:18:20;;;;;;;19.73;12.60;;;19.80;99.90;;;;;;5072118;28;20119;-73
2023/07/10 00:20:46;;;;;;;18.38;12.65;;;19.80;99.90;;;;;;5058294;28;20040;-74
2023/07/10 00:23:13;;;;;;;19.40;12.55;;;19.80;99.90;;;;;;5055273;28;20123;-74
2023/07/10 00:25:38;;;;;;;22.35;12.57;;;19.70;99.90;;;;;;5056427;28;20182;-73
2023/07/10 00:28:13;;;;;;;20.77;12.60;;;19.80;99.90;;;;;;5070350;28;20084;-74
2023/07/10 00:30:38;;;;;;;15.63;11.20;;;19.70;99.90;;;;;;5074656;28;20133;-73
2023/07/10 00:33:09;;;;;;;19.90;12.98;;;19.80;99.90;;;;;;5041877;28;20488;-73
2023/07/10 00:35:34;;;;;;;20.13;12.38;;;19.70;99.90;;;;;;5055099;28;20155;-73
2023/07/10 00:38:02;;;;;;;18.38;11.50;;;19.80;99.90;;;;;;5037595;28;20045;-74
2023/07/10 00:40:31;;;;;;;16.52;11.15;;;19.80;99.90;;;;;;5055248;28;20485;-74
2023/07/10 00:43:06;;;;;;;19.20;11.88;;;19.80;99.90;;;;;;5051979;28;20492;-74
2023/07/10 00:45:32;;;;;;;18.48;12.02;;;19.80;99.90;;;;;;5074612;28;20040;-74
2023/07/10 00:48:22;;;;;;;18.77;11.90;;;19.90;99.90;;;;;;5056743;28;20037;-74
2023/07/10 00:50:50;;;;;;;19.17;12.45;;;19.90;99.90;;;;;;5055909;28;20041;-74
2023/07/10 00:53:31;;;;;;;16.00;11.75;;;19.90;99.90;;;;;;5071299;28;20086;-74
2023/07/10 00:56:00;;;;;;;;;;;19.80;99.90;;;;;;5074914;28;20119;-74
2023/07/10 00:58:42;;;;;;;17.90;11.63;;;19.80;99.90;;;;;;5072243;28;19924;-74
2023/07/10 01:01:10;;;;;;;20.85;11.95;;;19.80;99.90;;;;;;5091058;28;20548;-74
2023/07/10 01:03:39;;;;;;;18.23;12.43;;;19.90;99.90;;;;;;5057792;28;20044;-74
2023/07/10 01:06:16;;;;;;;15.15;11.88;;;19.80;99.90;;;;;;5074141;28;20659;-74
2023/07/10 01:08:47;;;;;;;17.00;11.63;;;19.80;99.90;;;;;;5053861;28;20041;-75
2023/07/10 01:11:13;;;;;;;20.50;13.23;;;19.80;99.90;;;;;;5056222;28;20029;-74
2023/07/10 01:13:42;;;;;;;21.23;13.77;;;19.80;99.90;;;;;;5073066;28;20037;-74
2023/07/10 01:16:08;;;;;;;19.42;13.13;;;19.80;99.90;;;;;;5075321;28;20063;-74
2023/07/10 01:18:35;;;;;;;15.95;13.52;;;19.80;99.90;;;;;;5071423;28;20489;-74
2023/07/10 01:21:08;;;;;;;20.00;13.45;;;19.80;99.90;;;;;;5045798;28;20082;-74
2023/07/10 01:23:34;;;;;;;20.52;13.25;;;19.80;99.90;;;;;;5055382;28;20116;-74
2023/07/10 01:26:02;;;;;;;18.55;14.15;;;19.80;99.90;;;;;;5065634;28;20119;-74
2023/07/10 01:28:28;;;;;;;19.83;13.57;;;19.80;99.90;;;;;;5053900;28;20107;-74
2023/07/10 01:30:56;;;;;;;20.80;14.13;;;19.80;99.90;;;;;;5061469;28;20045;-74
2023/07/10 01:33:35;;;;;;;22.40;15.60;;;19.80;99.90;;;;;;5073893;28;20045;-74
2023/07/10 01:36:02;;;;;;;21.75;17.00;;;19.90;99.90;;;;;;5073933;28;20037;-75
2023/07/10 01:38:31;;;;;;;23.02;17.13;;;19.90;99.90;;;;;;5062940;28;20032;-75
2023/07/10 01:40:59;;;;;;;23.25;17.80;;;19.90;99.90;;;;;;5073500;28;20537;-74
2023/07/10 01:43:25;;;;;;;27.60;18.95;;;19.80;99.90;;;;;;5054197;28;20051;-74
2023/07/10 01:45:51;;;;;;;23.70;19.05;;;19.90;99.90;;;;;;5073701;28;20033;-75
2023/07/10 01:48:20;;;;;;;23.45;19.38;;;19.80;99.90;;;;;;5054558;28;20166;-74
2023/07/10 01:50:46;;;;;;;21.73;18.30;;;19.80;99.90;;;;;;5071013;28;20102;-75
2023/07/10 01:53:12;;;;;;;25.98;20.13;;;19.80;99.90;;;;;;5053639;28;20044;-74
2023/07/10 01:55:43;;;;;;;23.92;19.25;;;19.80;99.90;;;;;;5065569;28;20044;-73
2023/07/10 01:58:11;;;;;;;25.15;19.85;;;19.70;99.90;;;;;;5055441;28;20046;-74
2023/07/10 02:00:36;;;;;;;24.20;18.55;;;19.80;99.90;;;;;;5045008;28;20116;-74
2023/07/10 02:03:02;;;;;;;25.90;18.80;;;19.80;99.90;;;;;;5072453;28;20115;-74
2023/07/10 02:05:27;;;;;;;24.38;18.40;;;19.70;99.90;;;;;;5071373;28;20492;-74
2023/07/10 02:07:53;;;;;;;24.33;19.45;;;19.80;99.90;;;;;;5064740;28;20040;-74
2023/07/10 02:10:18;;;;;;;23.65;18.23;;;19.80;99.90;;;;;;5070288;28;20166;-74
2023/07/10 02:12:44;;;;;;;24.75;19.25;;;19.80;99.90;;;;;;5073194;28;20044;-74
2023/07/10 02:15:10;;;;;;;24.88;18.25;;;19.70;99.90;;;;;;5054154;28;20131;-73
2023/07/10 02:17:40;;;;;;;21.10;17.65;;;19.80;99.90;;;;;;5045613;28;20043;-74
2023/07/10 02:20:06;;;;;;;20.73;17.73;;;19.80;99.90;;;;;;5069430;28;20047;-74
2023/07/10 02:22:32;;;;;;;23.90;17.80;;;19.80;99.90;;;;;;5056242;28;20036;-73
2023/07/10 02:24:57;;;;;;;21.42;17.27;;;19.80;99.90;;;;;;5070486;28;20071;-73
2023/07/10 02:27:23;;;;;;;21.73;17.48;;;19.80;99.90;;;;;;5059802;28;20071;-73
2023/07/10 02:29:48;;;;;;;23.02;18.40;;;19.80;99.90;;;;;;5051706;28;20126;-74
2023/07/10 02:32:14;;;;;;;21.33;16.50;;;19.70;99.90;;;;;;5071123;28;20044;-73
2023/07/10 02:34:39;;;;;;;19.45;17.13;;;19.70;99.90;;;;;;5056085;28;20044;-73
2023/07/10 02:37:05;;;;;;;19.80;17.20;;;19.70;99.90;;;;;;5051479;28;20048;-73
2023/07/10 02:39:31;;;;;;;21.73;18.05;;;19.70;99.90;;;;;;5069114;28;20036;-73
2023/07/10 02:41:56;;;;;;;24.55;17.92;;;19.70;99.90;;;;;;5068710;28;20045;-74
2023/07/10 02:44:22;;;;;;;23.63;18.60;;;19.70;99.90;;;;;;5072272;28;20032;-74
2023/07/10 02:46:47;;;;;;;23.27;18.13;;;19.70;99.90;;;;;;5070528;28;20044;-74
2023/07/10 02:49:13;;;;;;;25.60;18.73;;;19.70;99.90;;;;;;5073367;28;20047;-74
2023/07/10 02:51:38;;;;;;;24.27;17.63;;;19.70;99.90;;;;;;5053505;28;20040;-74
2023/07/10 02:54:12;;;;;;;22.50;17.92;;;19.70;99.90;;;;;;5087021;28;20500;-74
2023/07/10 02:56:38;;;;;;;21.40;17.00;;;19.60;99.90;;;;;;5066266;28;20128;-74
2023/07/10 02:59:04;;;;;;;19.33;17.20;;;19.60;99.90;;;;;;5069343;28;20051;-75
2023/07/10 03:01:30;;;;;;;18.70;16.65;;;19.50;99.90;;;;;;5069109;28;20068;-74
2023/07/10 03:03:55;;;;;;;21.63;17.45;;;19.60;99.90;;;;;;5050423;28;20032;-74
2023/07/10 03:06:23;;;;;;;19.58;16.73;;;19.50;99.90;;;;;;5067810;28;20043;-74
2023/07/10 03:08:48;;;;;;;21.88;17.48;;;19.60;99.90;;;;;;5061605;28;20094;-75
2023/07/10 03:11:17;;;;;;;20.77;17.80;;;19.60;99.90;;;;;;5053166;28;20040;-74
2023/07/10 03:13:42;;;;;;;20.25;17.00;;;19.50;99.90;;;;;;5069917;28;20075;-74
2023/07/10 03:16:13;;;;;;;21.80;17.17;;;19.50;99.90;;;;;;5070757;28;20068;-75
2023/07/10 03:18:39;;;;;;;19.90;17.80;;;19.40;99.90;;;;;;5069111;28;20170;-74
2023/07/10 03:21:06;;;;;;;20.38;16.70;;;19.40;99.90;;;;;;5071007;28;20040;-74
2023/07/10 03:23:32;;;;;;;19.35;15.88;;;19.40;99.90;;;;;;5055441;28;20389;-74
2023/07/10 03:25:57;;;;;;;20.33;17.52;;;19.40;99.90;;;;;;5050159;28;20033;-74
2023/07/10 03:28:23;;;;;;;20.90;16.67;;;19.40;99.90;;;;;;5065827;28;20535;-74
2023/07/10 03:30:49;;;;;;;20.25;16.73;;;19.40;99.90;;;;;;5069299;28;20119;-74
2023/07/10 03:33:16;;;;;;;23.38;16.77;;;19.40;99.90;;;;;;5055044;28;20079;-74
2023/07/10 03:35:48;;;;;;;22.17;16.63;;;19.40;99.90;;;;;;5070552;28;20043;-74
2023/07/10 03:38:14;;;;;;;21.17;16.42;;;19.40;99.90;;;;;;5051213;28;20064;-74
2023/07/10 03:40:49;;;;;;;21.25;17.00;;;19.40;99.90;;;;;;5059141;28;20488;-74
2023/07/10 03:43:15;;;;;;;21.10;16.35;;;19.40;99.90;;;;;;5070855;28;20072;-74
2023/07/10 03:45:41;;;;;;;19.58;16.42;;;19.50;99.90;;;;;;5070574;28;20028;-74
2023/07/10 03:48:07;;;;;;;23.13;18.35;;;19.40;99.90;;;;;;5070638;28;20045;-74
2023/07/10 03:50:34;;;;;;;21.77;16.92;;;19.40;99.90;;;;;;5048175;28;20033;-74
2023/07/10 03:53:00;;;;;;;19.70;16.60;;;19.40;99.90;;;;;;5047579;28;20073;-74
2023/07/10 03:55:25;;;;;;;24.08;18.73;;;19.40;99.90;;;;;;5035071;28;20037;-74
2023/07/10 03:57:51;;;;;;;21.50;17.55;;;19.40;99.90;;;;;;5065410;28;20074;-74
2023/07/10 04:00:16;;;;;;;23.38;19.52;;;19.40;99.90;;;;;;5071891;28;20480;-74
2023/07/10 04:02:42;;;;;;;22.30;17.40;;;19.40;99.90;;;;;;5049466;28;20423;-74
2023/07/10 04:05:07;;;;;;;19.52;17.02;;;19.40;99.90;;;;;;5071471;28;20094;-74
2023/07/10 04:07:33;;;;;;;20.05;17.90;;;19.40;99.90;;;;;;5069735;28;20068;-74
2023/07/10 04:09:58;;;;;;;20.80;17.13;;;19.40;99.90;;;;;;5069571;28;20048;-74
2023/07/10 04:12:24;;;;;;;22.77;19.75;;;19.30;99.90;;;;;;5071873;28;20071;-74
2023/07/10 04:14:49;;;;;;;23.63;18.17;;;19.30;99.90;;;;;;5070210;28;20037;-74
2023/07/10 04:17:15;;;;;;;21.88;18.10;;;19.30;99.90;;;;;;5056679;28;20043;-74
2023/07/10 04:19:41;;;;;;;21.10;17.65;;;19.30;99.90;;;;;;5056122;28;20038;-74
2023/07/10 04:22:07;;;;;;;19.85;17.58;;;19.30;99.90;;;;;;5073393;28;20137;-74
2023/07/10 04:24:33;;;;;;;20.95;17.83;;;19.30;99.90;;;;;;5074141;28;20116;-74
2023/07/10 04:26:58;;;;;;;21.50;17.50;;;19.30;99.90;;;;;;5066730;28;20040;-74
2023/07/10 04:29:24;;;;;;;23.30;16.90;;;19.20;99.90;;;;;;5057025;28;20493;-74
2023/07/10 04:31:49;;;;;;;21.85;15.90;;;19.20;99.90;;;;;;5053906;28;20106;-74
2023/07/10 04:34:15;;;;;;;15.40;13.32;;;19.10;99.90;;;;;;5064227;28;20044;-74
2023/07/10 04:36:42;;;;;;;17.70;15.00;;;19.10;99.90;;;;;;5071158;28;20041;-74
2023/07/10 04:39:08;;;;;;;19.05;14.55;;;19.10;99.90;;;;;;5091510;28;20044;-74
2023/07/10 04:41:34;;;;;;;15.88;13.07;;;19.10;99.90;;;;;;5071287;28;20048;-74
2023/07/10 04:44:01;;;;;;;17.75;12.73;;;19.10;99.90;;;;;;5058161;28;20392;-74
2023/07/10 04:46:27;;;;;;;15.15;11.60;;;19.10;99.90;;;;;;5053376;28;20036;-74
2023/07/10 04:48:52;;;;;;;15.93;11.45;;;19.10;99.90;;;;;;5059272;28;20047;-74
2023/07/10 04:51:19;;;;;;;18.70;11.75;;;19.00;99.90;;;;;;5070556;28;20036;-74
2023/07/10 04:53:45;;;;;;;15.05;10.73;;;19.00;99.90;;;;;;5074335;28;20563;-74
2023/07/10 04:56:13;;;;;;;15.27;10.57;;;19.00;99.90;;;;;;5072112;28;20037;-74
2023/07/10 04:58:53;;;;;;;16.00;11.25;;;19.00;99.90;;;;;;5070890;28;20041;-74
2023/07/10 05:01:21;;;;;;;14.93;12.20;;;19.00;99.90;;;;;;5057614;28;20115;-74
2023/07/10 05:03:48;;;;;;;14.48;11.05;;;19.00;99.90;;;;;;5074338;28;20066;-74
2023/07/10 05:06:14;;;;;;;14.55;10.98;;;18.90;99.90;;;;;;5071285;28;20051;-74
2023/07/10 05:08:39;;;;;;;16.20;10.95;;;18.90;99.90;;;;;;5073852;28;20051;-75
2023/07/10 05:11:05;;;;;;;15.85;10.77;;;18.90;99.90;;;;;;5074286;28;20397;-74
2023/07/10 05:13:31;;;;;;;13.30;10.20;;;18.80;99.90;;;;;;5055250;28;20070;-74
2023/07/10 05:15:58;;;;;;;14.43;9.68;;;18.90;99.90;;;;;;5055840;28;20404;-74
2023/07/10 05:18:25;;;;;;;14.23;9.55;;;18.90;99.90;;;;;;5055950;28;20048;-74
2023/07/10 05:20:52;;;;;;;12.73;8.80;;;18.70;99.90;;;;;;5053942;28;20087;-74
2023/07/10 05:23:17;;;;;;;12.30;8.68;;;18.90;99.90;;;;;;5053845;28;20037;-74
2023/07/10 05:25:58;;;;;;;14.75;8.55;;;18.90;99.90;;;;;;5071684;28;20055;-74
2023/07/10 05:28:25;;;;;;;11.75;7.90;;;18.90;99.90;;;;;;5061945;28;20056;-74
2023/07/10 05:30:51;;;;;;;11.65;8.07;;;18.90;99.90;;;;;;5072009;28;20049;-74
2023/07/10 05:33:16;;;;;;;11.13;6.95;;;18.90;99.90;;;;;;5056159;28;20045;-74
2023/07/10 05:35:54;;;;;;;11.88;6.93;;;18.80;99.90;;;;;;5054261;28;20032;-74
2023/07/10 05:38:22;;;;;;;12.85;6.75;;;18.80;99.90;;;;;;5057563;28;20104;-75
2023/07/10 05:40:47;;;;;;;11.57;6.78;;;18.80;99.90;;;;;;5065575;28;20485;-74
2023/07/10 05:43:13;;;;;;;11.43;7.25;;;18.80;99.90;;;;;;5073878;28;20032;-74
2023/07/10 05:45:38;;;;;;;12.48;6.82;;;18.80;99.90;;;;;;5071290;28;20033;-74
2023/07/10 05:48:05;;;;;;;8.80;5.82;;;18.80;99.90;;;;;;5058287;28;20044;-75
2023/07/10 05:50:30;;;;;;;11.90;6.32;;;18.90;99.90;;;;;;5070724;28;20045;-75
2023/07/10 05:52:56;;;;;;;12.55;6.55;;;18.90;99.90;;;;;;5064272;28;20040;-74
2023/07/10 05:55:22;;;;;;;10.00;6.53;;;18.90;99.90;;;;;;5056687;28;20056;-75
2023/07/10 05:57:48;;;;;;;14.45;6.85;;;18.90;99.90;;;;;;5052202;28;20045;-75
2023/07/10 06:00:15;;;;;;;10.40;6.18;;;18.90;99.90;;;;;;5040776;28;20116;-75
2023/07/10 06:02:40;;;;;;;11.77;6.60;;;18.90;99.90;;;;;;5066546;28;20028;-75
2023/07/10 06:05:07;;;;;;;10.45;6.28;;;19.00;99.90;;;;;;5059025;28;20055;-75
2023/07/10 06:07:33;;;;;;;8.98;5.82;;;19.10;99.90;;;;;;5060649;28;20047;-75
2023/07/10 06:09:58;;;;;;;9.75;5.82;;;19.10;99.90;;;;;;5057168;28;20492;-74
2023/07/10 06:12:24;;;;;;;10.40;6.57;;;19.00;99.90;;;;;;5045023;28;20037;-75
2023/07/10 06:14:49;;;;;;;9.02;5.45;;;19.20;99.90;;;;;;5064407;28;20037;-75
2023/07/10 06:17:15;;;;;;;11.40;6.38;;;19.20;99.90;;;;;;5060041;28;20396;-75
2023/07/10 06:19:42;;;;;;;10.45;5.82;;;19.30;99.90;;;;;;5071376;28;20041;-75
2023/07/10 06:22:10;;;;;;;11.18;5.82;;;19.30;99.90;;;;;;5063882;28;20068;-75
2023/07/10 06:24:36;;;;;;;9.48;5.55;;;19.30;99.90;;;;;;5050373;28;20040;-80
2023/07/10 06:27:02;;;;;;;8.68;5.32;;;19.40;99.90;;;;;;5053721;28;20457;-80
2023/07/10 06:29:29;;;;;;;10.90;5.03;;;19.40;99.90;;;;;;5037828;28;20146;-75
2023/07/10 06:31:54;;;;;;;10.88;4.90;;;19.50;99.90;;;;;;5052181;28;20045;-75
2023/07/10 06:34:20;;;;;;;10.85;4.85;;;19.60;99.90;;;;;;5055625;28;20047;-76
2023/07/10 06:36:46;;;;;;;9.00;4.72;;;19.70;99.90;;;;;;5039120;28;20029;-76
2023/07/10 06:39:11;;;;;;;9.80;4.90;;;19.80;99.90;;;;;;5058651;28;20037;-76
2023/07/10 06:41:37;;;;;;;12.07;5.05;;;19.80;99.90;;;;;;5053529;28;20036;-76
2023/07/10 06:44:02;;;;;;;8.63;4.80;;;19.70;99.90;;;;;;5070519;28;20039;-76
2023/07/10 06:46:28;;;;;;;11.55;4.90;;;19.70;99.90;;;;;;5054485;28;20040;-76
2023/07/10 06:48:53;;;;;;;9.52;4.60;;;19.70;99.90;;;;;;5052269;28;20585;-76
2023/07/10 06:51:19;;;;;;;11.10;4.30;;;19.70;99.90;;;;;;5066975;28;20033;-76
2023/07/10 06:53:45;;;;;;;10.25;4.38;;;19.70;99.90;;;;;;5070012;28;20517;-76
2023/07/10 06:56:10;;;;;;;11.07;4.30;;;19.60;99.90;;;;;;5057730;28;20038;-76
2023/07/10 06:58:36;;;;;;;8.65;4.00;;;19.60;99.90;;;;;;5052288;28;20033;-76
2023/07/10 07:01:03;;;;;;;10.02;3.58;;;19.70;99.90;;;;;;5044332;28;20037;-76
2023/07/10 07:03:29;;;;;;;9.18;3.75;;;19.70;99.90;;;;;;5040179;28;20427;-76
2023/07/10 07:05:55;;;;;;;9.30;2.78;;;19.80;99.90;;;;;;5044002;28;20047;-76
2023/07/10 07:08:22;;;;;;;9.43;3.00;;;19.80;99.90;;;;;;5047481;28;20067;-76
2023/07/10 07:10:51;;;;;;;9.88;2.97;;;20.00;99.90;;;;;;5071698;28;20043;-76
2023/07/10 07:13:17;;;;;;;9.27;3.33;;;20.10;99.90;;;;;;5053647;28;20439;-76
2023/07/10 07:15:42;;;;;;;9.50;2.80;;;20.20;99.90;;;;;;5053109;28;20037;-76
2023/07/10 07:18:08;;;;;;;9.38;3.10;;;20.20;99.90;;;;;;5061213;28;20413;-76
2023/07/10 07:20:34;;;;;;;8.95;2.70;;;20.30;99.90;;;;;;5054558;28;20040;-76
2023/07/10 07:22:59;;;;;;;7.43;2.47;;;20.40;99.90;;;;;;5037704;28;20068;-76
2023/07/10 07:25:28;;;;;;;6.45;2.65;;;20.60;99.90;;;;;;5057488;28;20075;-76
2023/07/10 07:27:53;;;;;;;10.60;3.17;;;20.60;99.90;;;;;;5065675;28;20528;-76
2023/07/10 07:30:19;;;;;;;10.73;2.80;;;20.40;99.90;;;;;;5070710;28;20036;-76
2023/07/10 07:32:47;;;;;;;8.77;2.75;;;20.50;99.90;;;;;;5057866;28;20033;-76
2023/07/10 07:35:13;;;;;;;11.25;2.50;;;20.50;99.90;;;;;;5039424;28;20037;-76
2023/07/10 07:37:38;;;;;;;8.57;2.40;;;20.70;99.90;;;;;;5050290;28;20051;-77
2023/07/10 07:40:06;;;;;;;10.25;2.75;;;20.70;99.90;;;;;;5070676;28;20033;-75
2023/07/10 07:42:32;;;;;;;8.75;2.50;;;20.90;99.90;;;;;;5034141;28;20118;-75
2023/07/10 07:44:57;;;;;;;10.80;2.72;;;20.90;99.90;;;;;;5063922;28;20102;-77
2023/07/10 07:47:26;;;;;;;13.65;2.72;;;21.00;99.90;;;;;;5070387;28;20119;-79
2023/07/10 07:49:52;;;;;;;7.95;2.22;;;21.10;99.90;;;;;;5060294;28;20490;-79
2023/07/10 07:52:17;;;;;;;10.07;2.40;;;21.10;99.90;;;;;;5057606;28;20041;-73
2023/07/10 07:54:43;;;;;;;11.07;2.83;;;21.00;99.90;;;;;;5038485;28;20401;-73
2023/07/10 07:57:08;;;;;;;7.45;2.08;;;21.10;99.90;;;;;;5061941;28;20048;-72
2023/07/10 07:59:34;;;;;;;9.35;2.58;;;21.20;99.90;;;;;;5058132;28;20046;-77
2023/07/10 08:02:00;;;;;;;8.52;2.67;;;21.10;99.90;;;;;;5054158;28;20040;-77
2023/07/10 08:04:25;;;;;;;9.10;2.67;;;21.10;99.90;;;;;;5055476;28;20615;-76
2023/07/10 08:06:51;;;;;;;6.75;2.00;;;21.20;99.90;;;;;;5060445;28;20476;-77
2023/07/10 08:09:18;;;;;;;7.90;2.40;;;21.20;99.90;;;;;;5074836;28;20075;-76
2023/07/10 08:11:45;;;;;;;7.30;2.00;;;21.20;99.90;;;;;;5071645;28;20080;-76
2023/07/10 08:14:11;;;;;;;7.38;2.58;;;21.30;99.90;;;;;;5071598;28;20045;-77
2023/07/10 08:16:36;;;;;;;6.45;2.38;;;21.30;99.90;;;;;;5053938;28;20385;-76
2023/07/10 08:19:03;;;;;;;11.00;2.45;;;21.50;99.90;;;;;;5056077;28;20036;-77
2023/07/10 08:21:30;;;;;;;8.88;2.42;;;21.50;99.90;;;;;;5050714;28;20033;-76
2023/07/10 08:23:57;;;;;;;13.50;2.97;;;21.50;99.90;;;;;;5054546;28;20033;-76
2023/07/10 08:26:22;;;;;;;9.85;2.50;;;21.60;99.90;;;;;;5039816;28;20517;-77
2023/07/10 08:28:50;;;;;;;8.40;2.25;;;21.60;99.90;;;;;;5039828;28;20083;-76
2023/07/10 08:31:17;;;;;;;10.70;2.25;;;21.50;99.90;;;;;;5042436;28;20457;-76
2023/07/10 08:33:42;;;;;;;10.00;2.45;;;21.60;99.90;;;;;;5048053;28;20076;-76
2023/07/10 08:36:08;;;;;;;9.05;2.28;;;21.50;99.90;;;;;;5056446;28;20044;-76
2023/07/10 08:38:35;;;;;;;12.82;2.58;;;21.40;99.90;;;;;;5056578;28;20088;-76
2023/07/10 08:41:09;;;;;;;9.93;2.53;;;21.50;99.90;;;;;;5058735;28;20044;-76
2023/07/10 08:43:39;;;;;;;8.40;2.20;;;21.50;99.90;;;;;;5060408;28;20059;-76
2023/07/10 08:46:24;;;;;;;12.07;3.40;;;21.50;99.90;;;;;;5038207;28;20390;-76
2023/07/10 08:49:01;;;;;;;9.13;2.40;;;21.60;99.90;;;;;;5036514;28;20536;-77
2023/07/10 08:51:57;;;;;;;10.43;2.53;;;21.60;99.90;;;;;;5065431;28;20037;-77
2023/07/10 08:54:23;;;;;;;10.05;2.70;;;21.50;99.90;;;;;;5037624;28;20119;-77
2023/07/10 08:57:11;;;;;;;11.65;2.65;;;21.50;99.90;;;;;;5035671;28;20115;-76
2023/07/10 08:59:44;;;;;;;8.70;3.03;;;21.60;99.90;;;;;;5048084;28;20052;-77
2023/07/10 09:02:43;;;;;;;10.68;2.60;;;21.70;99.90;;;;;;5059879;28;20037;-77
2023/07/10 09:05:16;;;;;;;12.32;2.60;;;21.80;99.90;;;;;;5038216;28;20115;-77
2023/07/10 09:07:44;;;;;;;14.90;3.90;;;21.90;99.90;;;;;;5055622;28;20036;-76
2023/07/10 09:10:22;;;;;;;8.07;2.50;;;21.90;99.90;;;;;;5036071;28;20194;-77
2023/07/10 09:12:54;;;;;;;10.25;2.70;;;22.00;99.90;;;;;;5058815;28;20041;-76
2023/07/10 09:15:26;;;;;;;9.35;2.50;;;22.30;99.90;;;;;;5037730;28;20507;-77
2023/07/10 09:18:27;;;;;;;12.18;2.70;;;22.30;99.90;;;;;;5070327;28;20048;-77
2023/07/10 09:20:57;;;;;;;10.25;2.92;;;22.20;99.90;;;;;;5056657;28;20408;-77
2023/07/10 09:23:33;;;;;;;11.20;2.72;;;22.20;99.90;;;;;;5043705;28;20044;-77
2023/07/10 09:26:12;;;;;;;9.55;2.97;;;22.30;99.90;;;;;;5053262;28;20127;-77
2023/07/10 09:28:41;;;;;;;10.38;3.10;;;22.30;99.90;;;;;;5046837;28;20060;-77
2023/07/10 09:31:26;;;;;;;8.55;2.10;;;22.30;99.90;;;;;;5056645;28;20059;-77
2023/07/10 09:34:00;;;;;;;10.30;2.40;;;22.50;99.90;;;;;;5073261;28;20036;-77
2023/07/10 09:36:27;;;;;;;9.95;2.70;;;22.50;99.90;;;;;;5073921;28;20048;-77
2023/07/10 09:38:53;;;;;;;8.73;2.33;;;22.50;99.90;;;;;;5071850;28;20044;-77
2023/07/10 09:41:28;;;;;;;9.95;3.13;;;22.40;99.90;;;;;;5052481;28;20029;-77
2023/07/10 09:43:56;;;;;;;8.25;2.40;;;22.30;99.90;;;;;;5036055;28;20044;-77
2023/07/10 09:46:30;;;;;;;9.20;2.38;;;22.20;99.90;;;;;;5055272;28;20085;-77
2023/07/10 09:48:58;;;;;;;9.85;2.45;;;22.10;99.90;;;;;;5041339;28;20119;-77
2023/07/10 09:51:24;;;;;;;10.02;2.33;;;22.00;99.90;;;;;;5057465;28;20047;-77
2023/07/10 09:54:06;;;;;;;12.27;2.80;;;21.90;99.90;;;;;;5057938;28;20041;-77
2023/07/10 09:56:38;;;;;;;11.63;2.72;;;22.00;99.90;;;;;;5056439;28;20516;-77
2023/07/10 09:59:25;;;;;;;14.45;2.97;;;21.90;99.90;;;;;;5051392;28;20041;-78
2023/07/10 10:01:53;;;;;;;8.13;2.63;;;22.10;99.90;;;;;;5057291;28;20048;-77
2023/07/10 10:04:28;;;;;;;11.75;3.33;;;22.20;99.90;;;;;;5034861;28;20132;-78
2023/07/10 10:07:05;;;;;;;12.73;2.60;;;22.20;99.90;;;;;;5057939;28;20045;-78
2023/07/10 10:09:32;;;;;;;11.52;2.78;;;22.20;99.90;;;;;;5052231;28;20056;-78
2023/07/10 10:12:09;;;;;;;10.35;2.83;;;22.50;99.90;;;;;;5062860;28;20097;-79
2023/07/10 10:14:45;;;;;;;11.55;2.88;;;22.70;99.90;;;;;;5053497;28;20040;-78
2023/07/10 10:17:14;;;;;;;10.93;2.60;;;22.90;99.90;;;;;;5043690;28;20068;-78
2023/07/10 10:19:53;;;;;;;8.65;2.40;;;23.10;99.90;;;;;;5042194;28;20041;-78
2023/07/10 10:22:19;;;;;;;10.40;2.53;;;23.20;99.90;;;;;;5066697;28;20078;-78
2023/07/10 10:24:45;;;;;;;11.15;2.80;;;23.10;99.90;;;;;;5051489;28;20048;-78
2023/07/10 10:27:22;;;;;;;11.40;3.03;;;23.20;99.90;;;;;;5032460;28;20041;-79
2023/07/10 10:30:24;;;;;;;11.15;2.30;;;23.20;99.90;;;;;;5068419;28;20033;-78
2023/07/10 10:33:14;;;;;;;11.45;2.42;;;23.30;99.90;;;;;;5059678;28;20079;-78
2023/07/10 10:36:02;;;;;;;10.63;2.50;;;23.40;99.90;;;;;;5035834;28;20485;-79
2023/07/10 10:38:35;;;;;;;8.32;2.47;;;23.20;99.90;;;;;;5052814;28;20040;-78
2023/07/10 10:41:22;;;;;;;10.38;2.20;;;23.20;99.90;;;;;;5069543;28;20040;-79
2023/07/10 10:44:07;;;;;;;9.65;2.45;;;23.10;99.90;;;;;;5057206;28;20126;-78
2023/07/10 10:46:48;;;;;;;9.40;2.25;;;23.20;99.90;;;;;;5051390;28;20033;-78
2023/07/10 10:49:41;;;;;;;10.27;2.65;;;23.30;99.90;;;;;;5059094;28;20036;-78
2023/07/10 10:52:22;;;;;;;14.88;3.15;;;23.40;99.90;;;;;;5058637;28;20493;-78
2023/07/10 10:55:17;;;;;;;8.27;2.33;;;23.40;99.90;;;;;;5058807;28;20036;-78
2023/07/10 10:57:48;;;;;;;9.52;2.42;;;23.40;99.90;;;;;;5047526;28;20125;-78
2023/07/10 11:00:43;;;;;;;10.32;2.50;;;23.30;99.90;;;;;;5060625;28;20032;-78
2023/07/10 11:03:35;;;;;;;8.38;2.42;;;23.20;99.90;;;;;;5041873;28;20041;-79
2023/07/10 11:06:11;;;;;;;;;;;23.40;99.90;;;;;;5059067;28;20489;-79
2023/07/10 11:08:43;;;;;;;9.65;2.83;;;23.50;99.90;;;;;;5073746;28;19970;-78
2023/07/10 11:11:26;;;;;;;9.68;2.53;;;23.50;99.90;;;;;;5065063;28;20097;-78
2023/07/10 11:13:52;;;;;;;8.75;2.33;;;23.60;99.90;;;;;;5043267;28;20048;-78
2023/07/10 11:16:18;;;;;;;12.82;2.30;;;23.60;99.90;;;;;;5034322;28;20043;-78
2023/07/10 11:18:45;;;;;;;9.50;2.75;;;23.60;99.90;;;;;;5063909;28;20044;-73
2023/07/10 11:21:12;;;;;;;13.70;2.60;;;23.60;99.90;;;;;;5050217;28;20032;-73
2023/07/10 11:23:41;;;;;;;9.95;2.40;;;23.70;99.90;;;;;;5050417;28;20041;-74
2023/07/10 11:26:16;;;;;;;10.52;2.30;;;23.60;99.90;;;;;;5055014;28;20055;-77
2023/07/10 11:28:57;;;;;;;9.23;2.75;;;23.50;99.90;;;;;;5057382;28;20516;-75
2023/07/10 11:31:31;;;;;;;10.38;2.35;;;23.40;99.90;;;;;;5049992;28;20084;-76
2023/07/10 11:34:06;;;;;;;10.38;2.47;;;23.40;99.90;;;;;;5062105;28;20131;-76
2023/07/10 11:36:43;;;;;;;8.07;2.17;;;23.30;99.90;;;;;;5061794;28;20489;-77
2023/07/10 11:39:19;;;;;;;8.50;2.10;;;23.10;99.90;;;;;;5028751;28;20513;-76
2023/07/10 11:41:44;;;;;;;8.00;2.08;;;23.10;99.90;;;;;;5054668;28;20131;-76
2023/07/10 11:44:20;;;;;;;9.05;2.25;;;23.10;99.90;;;;;;5053439;28;20116;-76
2023/07/10 11:47:07;;;;;;;10.30;2.78;;;23.10;99.90;;;;;;5034894;28;20044;-76
2023/07/10 11:49:54;;;;;;;6.80;1.95;;;23.00;99.90;;;;;;5052873;28;20041;-76
2023/07/10 11:52:22;;;;;;;8.90;2.33;;;22.90;99.90;;;;;;5060710;28;20450;-76
2023/07/10 11:54:48;;;;;;;7.90;2.30;;;22.80;99.90;;;;;;5058379;28;20037;-76
2023/07/10 11:57:22;;;;;;;9.00;2.20;;;22.60;99.90;;;;;;5062439;28;20037;-76
2023/07/10 11:59:54;;;;;;;8.48;2.10;;;22.50;99.90;;;;;;5068351;28;20160;-76
2023/07/10 12:02:32;;;;;;;9.98;2.03;;;22.50;99.90;;;;;;5035712;28;20112;-76
2023/07/10 12:05:00;;;;;;;10.02;2.10;;;22.40;99.90;;;;;;5033379;28;20047;-76
2023/07/10 12:07:27;;;;;;;8.02;2.15;;;22.40;99.90;;;;;;5068075;28;20515;-76
2023/07/10 12:09:56;;;;;;;10.85;2.60;;;22.50;99.90;;;;;;5034919;28;20044;-76
2023/07/10 12:12:40;;;;;;;9.65;2.85;;;22.70;99.90;;;;;;5068746;28;20037;-77
2023/07/10 12:15:09;;;;;;;11.45;2.47;;;23.00;99.90;;;;;;5053068;28;20520;-76
2023/07/10 12:17:38;;;;;;;7.45;1.90;;;23.10;99.90;;;;;;5069125;28;20048;-77
2023/07/10 12:20:17;;;;;;;10.05;2.00;;;23.00;99.90;;;;;;5051312;28;20040;-76
2023/07/10 12:22:42;;;;;;;8.75;2.17;;;22.90;99.90;;;;;;5033372;28;20385;-83
2023/07/10 12:25:14;;;;;;;10.75;1.85;;;23.00;99.90;;;;;;5049754;28;20037;-77
2023/07/10 12:27:40;;;;;;;8.98;2.17;;;23.10;99.90;;;;;;5054756;28;20075;-76
2023/07/10 12:30:20;;;;;;;8.00;1.85;;;23.20;99.90;;;;;;5053511;28;20400;-77
2023/07/10 12:32:47;;;;;;;7.72;1.80;;;23.20;99.90;;;;;;5058699;28;20497;-76
2023/07/10 12:35:37;;;;;;;10.23;2.00;;;23.40;99.90;;;;;;5035545;28;20040;-80
2023/07/10 12:38:05;;;;;;;6.80;1.75;;;23.50;99.90;;;;;;5055174;28;20485;-76
2023/07/10 12:40:31;;;;;;;11.70;1.90;;;23.60;99.90;;;;;;5055520;28;20166;-76
2023/07/10 12:43:08;;;;;;;8.55;1.75;;;23.60;99.90;;;;;;5070800;28;20514;-76
2023/07/10 12:45:34;;;;;;;8.68;1.70;;;23.60;99.90;;;;;;5045204;28;20041;-76
2023/07/10 12:48:10;;;;;;;6.13;1.60;;;23.40;99.90;;;;;;5058702;28;20420;-77